sensor_id;sensor_type;location;lat;lon;timestamp;P1;durP1;ratioP1;P2;durP2;ratioP2
7571;SDS011;3827;49.928;8.548;2023-02-12T00:01:05;23.75;;;21.55;;
7571;SDS011;3827;49.928;8.548;2023-02-12T00:03:34;24.55;;;22.13;;
7571;SDS011;3827;49.928;8.548;2023-02-12T00:06:02;23.65;;;21.35;;
7571;SDS011;3827;49.928;8.548;2023-02-12T00:08:29;23.17;;;20.98;;
7571;SDS011;3827;49.928;8.548;2023-02-12T00:10:56;25.77;;;23.30;;
7571;SDS011;3827;49.928;8.548;2023-02-12T00:13:23;26.13;;;23.67;;
7571;SDS011;3827;49.928;8.548;2023-02-12T00:15:50;27.10;;;24.52;;
7571;SDS011;3827;49.928;8.548;2023-02-12T00:18:17;27.33;;;24.73;;
7571;SDS011;3827;49.928;8.548;2023-02-12T00:20:44;26.45;;;23.95;;
7571;SDS011;3827;49.928;8.548;2023-02-12T00:23:12;27.70;;;24.90;;
7571;SDS011;3827;49.928;8.548;2023-02-12T00:25:40;23.83;;;21.67;;
7571;SDS011;3827;49.928;8.548;2023-02-12T00:28:07;27.88;;;25.27;;
7571;SDS011;3827;49.928;8.548;2023-02-12T00:30:34;25.83;;;23.33;;
7571;SDS011;3827;49.928;8.548;2023-02-12T00:33:01;24.77;;;22.50;;
7571;SDS011;3827;49.928;8.548;2023-02-12T00:35:28;25.30;;;22.98;;
7571;SDS011;3827;49.928;8.548;2023-02-12T00:37:55;25.00;;;22.60;;
7571;SDS011;3827;49.928;8.548;2023-02-12T00:40:23;25.33;;;22.83;;
7571;SDS011;3827;49.928;8.548;2023-02-12T00:42:51;24.95;;;22.48;;
7571;SDS011;3827;49.928;8.548;2023-02-12T00:45:18;27.85;;;25.15;;
7571;SDS011;3827;49.928;8.548;2023-02-12T00:47:45;25.67;;;23.17;;
7571;SDS011;3827;49.928;8.548;2023-02-12T00:50:11;25.45;;;22.95;;
7571;SDS011;3827;49.928;8.548;2023-02-12T00:52:38;27.08;;;24.50;;
7571;SDS011;3827;49.928;8.548;2023-02-12T00:55:05;23.95;;;21.77;;
7571;SDS011;3827;49.928;8.548;2023-02-12T00:57:34;24.63;;;22.42;;
7571;SDS011;3827;49.928;8.548;2023-02-12T01:00:01;26.25;;;23.77;;
7571;SDS011;3827;49.928;8.548;2023-02-12T01:02:29;24.85;;;22.55;;
7571;SDS011;3827;49.928;8.548;2023-02-12T01:04:55;26.70;;;24.13;;
7571;SDS011;3827;49.928;8.548;2023-02-12T01:07:22;24.92;;;22.60;;
7571;SDS011;3827;49.928;8.548;2023-02-12T01:09:49;24.88;;;22.58;;
7571;SDS011;3827;49.928;8.548;2023-02-12T01:12:16;25.80;;;23.30;;
7571;SDS011;3827;49.928;8.548;2023-02-12T01:14:44;26.13;;;23.65;;
7571;SDS011;3827;49.928;8.548;2023-02-12T01:17:11;25.50;;;23.15;;
7571;SDS011;3827;49.928;8.548;2023-02-12T01:19:37;25.65;;;23.17;;
7571;SDS011;3827;49.928;8.548;2023-02-12T01:22:04;24.02;;;21.83;;
7571;SDS011;3827;49.928;8.548;2023-02-12T01:24:31;25.25;;;22.92;;
7571;SDS011;3827;49.928;8.548;2023-02-12T01:26:58;25.92;;;23.58;;
7571;SDS011;3827;49.928;8.548;2023-02-12T01:29:25;26.60;;;24.05;;
7571;SDS011;3827;49.928;8.548;2023-02-12T01:31:53;25.27;;;22.88;;
7571;SDS011;3827;49.928;8.548;2023-02-12T01:34:20;26.60;;;24.10;;
7571;SDS011;3827;49.928;8.548;2023-02-12T01:36:47;26.67;;;24.20;;
7571;SDS011;3827;49.928;8.548;2023-02-12T01:39:13;26.63;;;24.00;;
7571;SDS011;3827;49.928;8.548;2023-02-12T01:41:41;23.45;;;21.25;;
7571;SDS011;3827;49.928;8.548;2023-02-12T01:44:10;25.98;;;23.52;;
7571;SDS011;3827;49.928;8.548;2023-02-12T01:46:40;26.20;;;23.80;;
7571;SDS011;3827;49.928;8.548;2023-02-12T01:49:11;26.55;;;24.05;;
7571;SDS011;3827;49.928;8.548;2023-02-12T01:51:40;26.10;;;23.60;;
7571;SDS011;3827;49.928;8.548;2023-02-12T01:54:09;26.03;;;23.63;;
7571;SDS011;3827;49.928;8.548;2023-02-12T01:56:37;27.67;;;24.98;;
7571;SDS011;3827;49.928;8.548;2023-02-12T01:59:05;25.10;;;22.90;;
7571;SDS011;3827;49.928;8.548;2023-02-12T02:01:33;25.48;;;23.08;;
7571;SDS011;3827;49.928;8.548;2023-02-12T02:04:01;25.88;;;23.48;;
7571;SDS011;3827;49.928;8.548;2023-02-12T02:06:35;26.93;;;24.50;;
7571;SDS011;3827;49.928;8.548;2023-02-12T02:09:07;27.77;;;25.17;;
7571;SDS011;3827;49.928;8.548;2023-02-12T02:11:34;25.75;;;23.33;;
7571;SDS011;3827;49.928;8.548;2023-02-12T02:14:18;26.00;;;23.60;;
7571;SDS011;3827;49.928;8.548;2023-02-12T02:20:10;26.63;;;24.23;;
7571;SDS011;3827;49.928;8.548;2023-02-12T02:23:05;26.00;;;23.52;;
7571;SDS011;3827;49.928;8.548;2023-02-12T02:25:53;26.13;;;23.80;;
7571;SDS011;3827;49.928;8.548;2023-02-12T02:28:38;26.23;;;23.77;;
7571;SDS011;3827;49.928;8.548;2023-02-12T02:31:34;25.58;;;23.15;;
7571;SDS011;3827;49.928;8.548;2023-02-12T02:34:08;26.00;;;23.60;;
7571;SDS011;3827;49.928;8.548;2023-02-12T02:36:43;26.05;;;23.63;;
7571;SDS011;3827;49.928;8.548;2023-02-12T02:39:14;25.75;;;23.42;;
7571;SDS011;3827;49.928;8.548;2023-02-12T02:41:50;25.92;;;23.52;;
7571;SDS011;3827;49.928;8.548;2023-02-12T02:44:23;24.15;;;21.95;;
7571;SDS011;3827;49.928;8.548;2023-02-12T02:46:55;25.85;;;23.40;;
7571;SDS011;3827;49.928;8.548;2023-02-12T02:49:24;25.23;;;22.85;;
7571;SDS011;3827;49.928;8.548;2023-02-12T02:51:56;25.38;;;23.10;;
7571;SDS011;3827;49.928;8.548;2023-02-12T02:54:29;25.63;;;23.23;;
7571;SDS011;3827;49.928;8.548;2023-02-12T02:56:59;25.73;;;23.33;;
7571;SDS011;3827;49.928;8.548;2023-02-12T02:59:32;25.40;;;22.98;;
7571;SDS011;3827;49.928;8.548;2023-02-12T03:02:05;24.38;;;22.23;;
7571;SDS011;3827;49.928;8.548;2023-02-12T03:04:38;26.02;;;23.63;;
7571;SDS011;3827;49.928;8.548;2023-02-12T03:07:08;25.02;;;22.73;;
7571;SDS011;3827;49.928;8.548;2023-02-12T03:09:38;23.92;;;21.83;;
7571;SDS011;3827;49.928;8.548;2023-02-12T03:12:09;24.40;;;22.00;;
7571;SDS011;3827;49.928;8.548;2023-02-12T03:14:41;28.20;;;25.60;;
7571;SDS011;3827;49.928;8.548;2023-02-12T03:17:15;28.13;;;25.50;;
7571;SDS011;3827;49.928;8.548;2023-02-12T03:19:45;25.43;;;23.20;;
7571;SDS011;3827;49.928;8.548;2023-02-12T03:22:16;27.52;;;24.92;;
7571;SDS011;3827;49.928;8.548;2023-02-12T03:24:47;25.67;;;23.35;;
7571;SDS011;3827;49.928;8.548;2023-02-12T03:27:19;25.30;;;22.90;;
7571;SDS011;3827;49.928;8.548;2023-02-12T03:29:52;24.90;;;22.70;;
7571;SDS011;3827;49.928;8.548;2023-02-12T03:32:26;24.20;;;22.00;;
7571;SDS011;3827;49.928;8.548;2023-02-12T03:34:58;25.63;;;23.23;;
7571;SDS011;3827;49.928;8.548;2023-02-12T03:37:34;24.58;;;22.35;;
7571;SDS011;3827;49.928;8.548;2023-02-12T03:40:06;23.67;;;21.48;;
7571;SDS011;3827;49.928;8.548;2023-02-12T03:42:40;26.35;;;23.88;;
7571;SDS011;3827;49.928;8.548;2023-02-12T03:45:13;25.25;;;22.95;;
7571;SDS011;3827;49.928;8.548;2023-02-12T03:47:49;26.00;;;23.60;;
7571;SDS011;3827;49.928;8.548;2023-02-12T03:50:25;24.13;;;21.93;;
7571;SDS011;3827;49.928;8.548;2023-02-12T03:52:58;24.02;;;21.85;;
7571;SDS011;3827;49.928;8.548;2023-02-12T03:55:24;24.80;;;22.50;;
7571;SDS011;3827;49.928;8.548;2023-02-12T03:57:53;26.13;;;23.63;;
7571;SDS011;3827;49.928;8.548;2023-02-12T04:00:25;23.77;;;21.58;;
7571;SDS011;3827;49.928;8.548;2023-02-12T04:02:54;23.42;;;21.33;;
7571;SDS011;3827;49.928;8.548;2023-02-12T04:05:21;26.38;;;23.98;;
7571;SDS011;3827;49.928;8.548;2023-02-12T04:07:49;24.17;;;22.00;;
7571;SDS011;3827;49.928;8.548;2023-02-12T04:10:18;26.25;;;23.70;;
7571;SDS011;3827;49.928;8.548;2023-02-12T04:12:51;26.93;;;24.33;;
7571;SDS011;3827;49.928;8.548;2023-02-12T04:15:27;26.60;;;24.07;;
7571;SDS011;3827;49.928;8.548;2023-02-12T04:18:05;26.15;;;23.75;;
7571;SDS011;3827;49.928;8.548;2023-02-12T04:20:40;24.63;;;22.33;;
7571;SDS011;3827;49.928;8.548;2023-02-12T04:23:16;26.27;;;23.80;;
7571;SDS011;3827;49.928;8.548;2023-02-12T04:25:55;26.33;;;23.87;;
7571;SDS011;3827;49.928;8.548;2023-02-12T04:28:33;26.52;;;24.08;;
7571;SDS011;3827;49.928;8.548;2023-02-12T04:31:06;26.63;;;24.13;;
7571;SDS011;3827;49.928;8.548;2023-02-12T04:33:41;26.48;;;23.98;;
7571;SDS011;3827;49.928;8.548;2023-02-12T04:36:13;27.30;;;24.77;;
7571;SDS011;3827;49.928;8.548;2023-02-12T04:38:45;25.27;;;22.97;;
7571;SDS011;3827;49.928;8.548;2023-02-12T04:41:15;25.67;;;23.27;;
7571;SDS011;3827;49.928;8.548;2023-02-12T04:43:43;26.30;;;23.90;;
7571;SDS011;3827;49.928;8.548;2023-02-12T04:46:09;26.23;;;23.83;;
7571;SDS011;3827;49.928;8.548;2023-02-12T04:48:36;26.42;;;23.95;;
7571;SDS011;3827;49.928;8.548;2023-02-12T04:51:15;25.10;;;22.90;;
7571;SDS011;3827;49.928;8.548;2023-02-12T04:53:42;24.52;;;22.23;;
7571;SDS011;3827;49.928;8.548;2023-02-12T04:56:09;24.98;;;22.80;;
7571;SDS011;3827;49.928;8.548;2023-02-12T04:58:37;22.85;;;20.85;;
7571;SDS011;3827;49.928;8.548;2023-02-12T05:01:03;24.95;;;22.67;;
7571;SDS011;3827;49.928;8.548;2023-02-12T05:03:30;24.80;;;22.50;;
7571;SDS011;3827;49.928;8.548;2023-02-12T05:06:02;25.08;;;22.77;;
7571;SDS011;3827;49.928;8.548;2023-02-12T05:08:29;25.95;;;23.48;;
7571;SDS011;3827;49.928;8.548;2023-02-12T05:10:56;25.50;;;23.20;;
7571;SDS011;3827;49.928;8.548;2023-02-12T05:13:23;23.63;;;21.52;;
7571;SDS011;3827;49.928;8.548;2023-02-12T05:15:49;24.55;;;22.35;;
7571;SDS011;3827;49.928;8.548;2023-02-12T05:18:16;24.52;;;22.23;;
7571;SDS011;3827;49.928;8.548;2023-02-12T05:20:43;25.58;;;23.10;;
7571;SDS011;3827;49.928;8.548;2023-02-12T05:23:11;25.98;;;23.58;;
7571;SDS011;3827;49.928;8.548;2023-02-12T05:25:38;25.42;;;23.02;;
7571;SDS011;3827;49.928;8.548;2023-02-12T05:28:04;25.95;;;23.63;;
7571;SDS011;3827;49.928;8.548;2023-02-12T05:30:31;27.27;;;24.67;;
7571;SDS011;3827;49.928;8.548;2023-02-12T05:32:58;27.65;;;25.15;;
7571;SDS011;3827;49.928;8.548;2023-02-12T05:35:25;25.48;;;23.00;;
7571;SDS011;3827;49.928;8.548;2023-02-12T05:37:51;25.13;;;22.83;;
7571;SDS011;3827;49.928;8.548;2023-02-12T05:40:19;25.50;;;23.15;;
7571;SDS011;3827;49.928;8.548;2023-02-12T05:42:46;25.25;;;22.95;;
7571;SDS011;3827;49.928;8.548;2023-02-12T05:45:13;25.50;;;23.10;;
7571;SDS011;3827;49.928;8.548;2023-02-12T05:47:40;24.67;;;22.48;;
7571;SDS011;3827;49.928;8.548;2023-02-12T05:50:07;24.53;;;22.33;;
7571;SDS011;3827;49.928;8.548;2023-02-12T05:52:34;26.27;;;23.80;;
7571;SDS011;3827;49.928;8.548;2023-02-12T05:55:01;27.15;;;24.65;;
7571;SDS011;3827;49.928;8.548;2023-02-12T05:57:29;27.10;;;24.52;;
7571;SDS011;3827;49.928;8.548;2023-02-12T05:59:56;27.03;;;24.53;;
7571;SDS011;3827;49.928;8.548;2023-02-12T06:02:23;26.63;;;24.13;;
7571;SDS011;3827;49.928;8.548;2023-02-12T06:04:50;26.00;;;23.60;;
7571;SDS011;3827;49.928;8.548;2023-02-12T06:07:17;26.02;;;23.52;;
7571;SDS011;3827;49.928;8.548;2023-02-12T06:09:43;24.95;;;22.75;;
7571;SDS011;3827;49.928;8.548;2023-02-12T06:12:10;26.10;;;23.63;;
7571;SDS011;3827;49.928;8.548;2023-02-12T06:14:39;26.50;;;24.13;;
7571;SDS011;3827;49.928;8.548;2023-02-12T06:17:06;25.80;;;23.50;;
7571;SDS011;3827;49.928;8.548;2023-02-12T06:19:33;25.90;;;23.42;;
7571;SDS011;3827;49.928;8.548;2023-02-12T06:21:59;25.33;;;23.05;;
7571;SDS011;3827;49.928;8.548;2023-02-12T06:24:26;24.42;;;22.23;;
7571;SDS011;3827;49.928;8.548;2023-02-12T06:26:53;22.98;;;20.98;;
7571;SDS011;3827;49.928;8.548;2023-02-12T06:29:20;25.02;;;22.80;;
7571;SDS011;3827;49.928;8.548;2023-02-12T06:31:49;26.15;;;23.80;;
7571;SDS011;3827;49.928;8.548;2023-02-12T06:34:15;26.90;;;24.33;;
7571;SDS011;3827;49.928;8.548;2023-02-12T06:36:43;26.38;;;23.98;;
7571;SDS011;3827;49.928;8.548;2023-02-12T06:39:11;26.92;;;24.42;;
7571;SDS011;3827;49.928;8.548;2023-02-12T06:41:39;27.10;;;24.60;;
7571;SDS011;3827;49.928;8.548;2023-02-12T06:44:06;27.10;;;24.60;;
7571;SDS011;3827;49.928;8.548;2023-02-12T06:46:33;26.55;;;24.05;;
7571;SDS011;3827;49.928;8.548;2023-02-12T06:49:01;27.63;;;25.20;;
7571;SDS011;3827;49.928;8.548;2023-02-12T06:51:29;27.03;;;24.53;;
7571;SDS011;3827;49.928;8.548;2023-02-12T06:53:56;26.43;;;24.03;;
7571;SDS011;3827;49.928;8.548;2023-02-12T06:56:23;28.92;;;26.10;;
7571;SDS011;3827;49.928;8.548;2023-02-12T06:58:52;29.40;;;26.80;;
7571;SDS011;3827;49.928;8.548;2023-02-12T07:01:20;27.38;;;24.77;;
7571;SDS011;3827;49.928;8.548;2023-02-12T07:03:49;27.38;;;24.90;;
7571;SDS011;3827;49.928;8.548;2023-02-12T07:06:18;29.80;;;27.10;;
7571;SDS011;3827;49.928;8.548;2023-02-12T07:08:46;30.52;;;27.73;;
7571;SDS011;3827;49.928;8.548;2023-02-12T07:11:13;29.03;;;26.33;;
7571;SDS011;3827;49.928;8.548;2023-02-12T07:13:40;29.73;;;26.93;;
7571;SDS011;3827;49.928;8.548;2023-02-12T07:16:08;28.67;;;26.08;;
7571;SDS011;3827;49.928;8.548;2023-02-12T07:18:36;30.70;;;27.85;;
7571;SDS011;3827;49.928;8.548;2023-02-12T07:21:04;29.10;;;26.35;;
7571;SDS011;3827;49.928;8.548;2023-02-12T07:23:35;28.77;;;26.08;;
7571;SDS011;3827;49.928;8.548;2023-02-12T07:26:03;28.00;;;25.45;;
7571;SDS011;3827;49.928;8.548;2023-02-12T07:28:32;27.65;;;25.13;;
7571;SDS011;3827;49.928;8.548;2023-02-12T07:30:59;29.83;;;27.05;;
7571;SDS011;3827;49.928;8.548;2023-02-12T07:33:31;35.60;;;32.30;;
7571;SDS011;3827;49.928;8.548;2023-02-12T07:35:59;33.78;;;30.55;;
7571;SDS011;3827;49.928;8.548;2023-02-12T07:38:25;35.40;;;32.20;;
7571;SDS011;3827;49.928;8.548;2023-02-12T07:40:54;37.55;;;34.10;;
7571;SDS011;3827;49.928;8.548;2023-02-12T07:43:30;35.15;;;31.85;;
7571;SDS011;3827;49.928;8.548;2023-02-12T07:46:04;31.98;;;29.02;;
7571;SDS011;3827;49.928;8.548;2023-02-12T07:48:32;32.50;;;29.50;;
7571;SDS011;3827;49.928;8.548;2023-02-12T07:51:01;30.53;;;27.63;;
7571;SDS011;3827;49.928;8.548;2023-02-12T07:53:28;32.15;;;29.20;;
7571;SDS011;3827;49.928;8.548;2023-02-12T07:56:04;33.30;;;30.20;;
7571;SDS011;3827;49.928;8.548;2023-02-12T07:58:34;38.17;;;34.28;;
7571;SDS011;3827;49.928;8.548;2023-02-12T08:01:10;36.30;;;32.97;;
7571;SDS011;3827;49.928;8.548;2023-02-12T08:03:38;38.83;;;35.22;;
7571;SDS011;3827;49.928;8.548;2023-02-12T08:06:08;38.40;;;34.85;;
7571;SDS011;3827;49.928;8.548;2023-02-12T08:08:36;37.47;;;34.05;;
7571;SDS011;3827;49.928;8.548;2023-02-12T08:11:05;35.10;;;32.00;;
7571;SDS011;3827;49.928;8.548;2023-02-12T08:13:32;39.60;;;35.83;;
7571;SDS011;3827;49.928;8.548;2023-02-12T08:15:59;35.95;;;32.75;;
7571;SDS011;3827;49.928;8.548;2023-02-12T08:18:26;38.90;;;35.38;;
7571;SDS011;3827;49.928;8.548;2023-02-12T08:20:53;37.27;;;33.77;;
7571;SDS011;3827;49.928;8.548;2023-02-12T08:23:20;44.53;;;40.35;;
7571;SDS011;3827;49.928;8.548;2023-02-12T08:25:47;42.67;;;38.58;;
7571;SDS011;3827;49.928;8.548;2023-02-12T08:28:15;39.83;;;35.92;;
7571;SDS011;3827;49.928;8.548;2023-02-12T08:30:42;39.53;;;35.90;;
7571;SDS011;3827;49.928;8.548;2023-02-12T08:33:09;39.88;;;36.17;;
7571;SDS011;3827;49.928;8.548;2023-02-12T08:35:36;41.00;;;37.30;;
7571;SDS011;3827;49.928;8.548;2023-02-12T08:38:02;40.60;;;36.60;;
7571;SDS011;3827;49.928;8.548;2023-02-12T08:40:29;42.35;;;37.90;;
7571;SDS011;3827;49.928;8.548;2023-02-12T08:42:56;41.97;;;38.03;;
7571;SDS011;3827;49.928;8.548;2023-02-12T08:45:24;42.50;;;38.40;;
7571;SDS011;3827;49.928;8.548;2023-02-12T08:47:51;39.95;;;36.35;;
7571;SDS011;3827;49.928;8.548;2023-02-12T08:50:19;43.87;;;39.60;;
7571;SDS011;3827;49.928;8.548;2023-02-12T08:52:46;39.47;;;35.67;;
7571;SDS011;3827;49.928;8.548;2023-02-12T08:55:12;40.33;;;36.60;;
7571;SDS011;3827;49.928;8.548;2023-02-12T08:57:40;45.25;;;40.90;;
7571;SDS011;3827;49.928;8.548;2023-02-12T09:00:08;45.28;;;40.88;;
7571;SDS011;3827;49.928;8.548;2023-02-12T09:02:37;43.75;;;39.65;;
7571;SDS011;3827;49.928;8.548;2023-02-12T09:05:04;45.00;;;40.50;;
7571;SDS011;3827;49.928;8.548;2023-02-12T09:07:31;42.17;;;38.10;;
7571;SDS011;3827;49.928;8.548;2023-02-12T09:09:57;41.63;;;37.63;;
7571;SDS011;3827;49.928;8.548;2023-02-12T09:12:24;57.25;;;51.40;;
7571;SDS011;3827;49.928;8.548;2023-02-12T09:14:51;59.03;;;53.25;;
7571;SDS011;3827;49.928;8.548;2023-02-12T09:17:18;52.07;;;46.87;;
7571;SDS011;3827;49.928;8.548;2023-02-12T09:19:46;47.25;;;42.47;;
7571;SDS011;3827;49.928;8.548;2023-02-12T09:22:13;46.80;;;42.07;;
7571;SDS011;3827;49.928;8.548;2023-02-12T09:24:39;47.13;;;42.33;;
7571;SDS011;3827;49.928;8.548;2023-02-12T09:27:06;46.75;;;41.95;;
7571;SDS011;3827;49.928;8.548;2023-02-12T09:29:33;48.40;;;43.42;;
7571;SDS011;3827;49.928;8.548;2023-02-12T09:32:00;47.63;;;42.45;;
7571;SDS011;3827;49.928;8.548;2023-02-12T09:34:32;46.13;;;41.23;;
7571;SDS011;3827;49.928;8.548;2023-02-12T09:37:01;47.03;;;41.60;;
7571;SDS011;3827;49.928;8.548;2023-02-12T09:39:28;45.65;;;40.83;;
7571;SDS011;3827;49.928;8.548;2023-02-12T09:42:01;47.25;;;42.10;;
7571;SDS011;3827;49.928;8.548;2023-02-12T09:44:43;42.67;;;38.28;;
7571;SDS011;3827;49.928;8.548;2023-02-12T09:47:15;45.50;;;40.67;;
7571;SDS011;3827;49.928;8.548;2023-02-12T09:52:47;45.87;;;40.97;;
7571;SDS011;3827;49.928;8.548;2023-02-12T09:55:14;46.00;;;41.13;;
7571;SDS011;3827;49.928;8.548;2023-02-12T09:57:43;45.00;;;40.20;;
7571;SDS011;3827;49.928;8.548;2023-02-12T10:00:13;47.30;;;42.17;;
7571;SDS011;3827;49.928;8.548;2023-02-12T10:02:43;46.58;;;41.50;;
7571;SDS011;3827;49.928;8.548;2023-02-12T10:05:13;43.07;;;38.40;;
7571;SDS011;3827;49.928;8.548;2023-02-12T10:07:52;38.97;;;34.88;;
7571;SDS011;3827;49.928;8.548;2023-02-12T10:10:41;39.88;;;35.63;;
7571;SDS011;3827;49.928;8.548;2023-02-12T10:13:16;39.13;;;34.83;;
7571;SDS011;3827;49.928;8.548;2023-02-12T10:15:52;40.92;;;36.38;;
7571;SDS011;3827;49.928;8.548;2023-02-12T10:18:37;42.53;;;37.53;;
7571;SDS011;3827;49.928;8.548;2023-02-12T10:21:33;46.70;;;41.25;;
7571;SDS011;3827;49.928;8.548;2023-02-12T10:27:15;38.60;;;34.47;;
7571;SDS011;3827;49.928;8.548;2023-02-12T10:29:43;37.65;;;33.60;;
7571;SDS011;3827;49.928;8.548;2023-02-12T10:32:12;36.70;;;32.80;;
7571;SDS011;3827;49.928;8.548;2023-02-12T10:34:46;34.10;;;30.52;;
7571;SDS011;3827;49.928;8.548;2023-02-12T10:37:17;36.50;;;32.25;;
7571;SDS011;3827;49.928;8.548;2023-02-12T10:39:53;35.15;;;31.35;;
7571;SDS011;3827;49.928;8.548;2023-02-12T10:42:25;34.78;;;30.98;;
7571;SDS011;3827;49.928;8.548;2023-02-12T10:45:01;34.58;;;30.83;;
7571;SDS011;3827;49.928;8.548;2023-02-12T10:47:28;36.75;;;32.85;;
7571;SDS011;3827;49.928;8.548;2023-02-12T10:49:56;35.78;;;31.88;;
7571;SDS011;3827;49.928;8.548;2023-02-12T10:52:29;38.30;;;32.80;;
7571;SDS011;3827;49.928;8.548;2023-02-12T10:55:09;34.80;;;31.08;;
7571;SDS011;3827;49.928;8.548;2023-02-12T10:57:51;34.75;;;30.73;;
7571;SDS011;3827;49.928;8.548;2023-02-12T11:00:22;34.40;;;30.70;;
7571;SDS011;3827;49.928;8.548;2023-02-12T11:02:59;35.33;;;31.55;;
7571;SDS011;3827;49.928;8.548;2023-02-12T11:05:30;34.45;;;30.75;;
7571;SDS011;3827;49.928;8.548;2023-02-12T11:07:58;34.40;;;30.60;;
7571;SDS011;3827;49.928;8.548;2023-02-12T11:10:28;32.97;;;29.45;;
7571;SDS011;3827;49.928;8.548;2023-02-12T11:12:56;33.38;;;29.77;;
7571;SDS011;3827;49.928;8.548;2023-02-12T11:15:24;34.28;;;30.50;;
7571;SDS011;3827;49.928;8.548;2023-02-12T11:17:56;34.80;;;31.02;;
7571;SDS011;3827;49.928;8.548;2023-02-12T11:21:33;35.00;;;31.15;;
7571;SDS011;3827;49.928;8.548;2023-02-12T11:23:49;34.42;;;30.08;;
7571;SDS011;3827;49.928;8.548;2023-02-12T11:26:24;34.25;;;30.52;;
7571;SDS011;3827;49.928;8.548;2023-02-12T11:28:53;31.33;;;28.08;;
7571;SDS011;3827;49.928;8.548;2023-02-12T11:31:22;31.13;;;27.83;;
7571;SDS011;3827;49.928;8.548;2023-02-12T11:34:05;30.92;;;27.73;;
7571;SDS011;3827;49.928;8.548;2023-02-12T11:36:35;32.17;;;28.67;;
7571;SDS011;3827;49.928;8.548;2023-02-12T11:39:05;30.52;;;27.23;;
7571;SDS011;3827;49.928;8.548;2023-02-12T11:41:48;31.33;;;28.02;;
7571;SDS011;3827;49.928;8.548;2023-02-12T11:44:18;29.00;;;26.00;;
7571;SDS011;3827;49.928;8.548;2023-02-12T11:46:48;32.40;;;28.88;;
7571;SDS011;3827;49.928;8.548;2023-02-12T11:49:20;31.20;;;27.90;;
7571;SDS011;3827;49.928;8.548;2023-02-12T11:51:49;29.90;;;26.77;;
7571;SDS011;3827;49.928;8.548;2023-02-12T11:54:19;33.42;;;29.73;;
7571;SDS011;3827;49.928;8.548;2023-02-12T11:56:49;31.02;;;27.73;;
7571;SDS011;3827;49.928;8.548;2023-02-12T12:02:03;30.55;;;27.33;;
7571;SDS011;3827;49.928;8.548;2023-02-12T12:04:41;33.35;;;29.75;;
7571;SDS011;3827;49.928;8.548;2023-02-12T12:07:12;31.63;;;28.23;;
7571;SDS011;3827;49.928;8.548;2023-02-12T12:09:46;29.27;;;26.23;;
7571;SDS011;3827;49.928;8.548;2023-02-12T12:12:16;27.87;;;25.00;;
7571;SDS011;3827;49.928;8.548;2023-02-12T12:14:48;32.40;;;28.90;;
7571;SDS011;3827;49.928;8.548;2023-02-12T12:17:37;30.27;;;27.08;;
7571;SDS011;3827;49.928;8.548;2023-02-12T12:20:29;26.60;;;23.80;;
7571;SDS011;3827;49.928;8.548;2023-02-12T12:22:59;26.85;;;24.00;;
7571;SDS011;3827;49.928;8.548;2023-02-12T12:25:33;27.97;;;25.03;;
7571;SDS011;3827;49.928;8.548;2023-02-12T12:28:05;30.75;;;27.52;;
7571;SDS011;3827;49.928;8.548;2023-02-12T12:30:46;31.67;;;28.27;;
7571;SDS011;3827;49.928;8.548;2023-02-12T12:33:19;27.40;;;24.15;;
7571;SDS011;3827;49.928;8.548;2023-02-12T12:35:58;27.73;;;24.65;;
7571;SDS011;3827;49.928;8.548;2023-02-12T12:38:40;29.52;;;26.23;;
7571;SDS011;3827;49.928;8.548;2023-02-12T12:41:17;28.33;;;25.23;;
7571;SDS011;3827;49.928;8.548;2023-02-12T12:43:55;26.25;;;23.52;;
7571;SDS011;3827;49.928;8.548;2023-02-12T12:52:02;21.20;;;19.00;;
7571;SDS011;3827;49.928;8.548;2023-02-12T12:54:54;14.80;;;13.40;;
7571;SDS011;3827;49.928;8.548;2023-02-12T12:57:45;18.10;;;16.30;;
7571;SDS011;3827;49.928;8.548;2023-02-12T13:00:27;18.73;;;16.83;;
7571;SDS011;3827;49.928;8.548;2023-02-12T13:03:14;20.48;;;18.42;;
7571;SDS011;3827;49.928;8.548;2023-02-12T13:06:07;19.67;;;17.77;;
7571;SDS011;3827;49.928;8.548;2023-02-12T13:08:47;19.00;;;17.20;;
7571;SDS011;3827;49.928;8.548;2023-02-12T13:11:30;19.42;;;17.52;;
7571;SDS011;3827;49.928;8.548;2023-02-12T13:14:11;18.48;;;16.67;;
7571;SDS011;3827;49.928;8.548;2023-02-12T13:16:58;17.77;;;16.08;;
7571;SDS011;3827;49.928;8.548;2023-02-12T13:19:32;18.50;;;16.80;;
7571;SDS011;3827;49.928;8.548;2023-02-12T13:22:07;18.95;;;17.05;;
7571;SDS011;3827;49.928;8.548;2023-02-12T13:24:39;20.15;;;18.23;;
7571;SDS011;3827;49.928;8.548;2023-02-12T13:27:11;20.25;;;18.15;;
7571;SDS011;3827;49.928;8.548;2023-02-12T13:29:43;20.15;;;18.17;;
7571;SDS011;3827;49.928;8.548;2023-02-12T13:32:13;20.20;;;18.13;;
7571;SDS011;3827;49.928;8.548;2023-02-12T13:34:45;19.60;;;17.70;;
7571;SDS011;3827;49.928;8.548;2023-02-12T13:37:14;18.00;;;16.20;;
7571;SDS011;3827;49.928;8.548;2023-02-12T13:39:44;19.45;;;17.48;;
7571;SDS011;3827;49.928;8.548;2023-02-12T13:42:20;20.52;;;18.48;;
7571;SDS011;3827;49.928;8.548;2023-02-12T13:45:05;22.92;;;20.58;;
7571;SDS011;3827;49.928;8.548;2023-02-12T13:47:44;19.27;;;17.38;;
7571;SDS011;3827;49.928;8.548;2023-02-12T13:50:22;20.00;;;18.10;;
7571;SDS011;3827;49.928;8.548;2023-02-12T13:53:01;19.95;;;17.95;;
7571;SDS011;3827;49.928;8.548;2023-02-12T13:55:40;19.50;;;17.50;;
7571;SDS011;3827;49.928;8.548;2023-02-12T13:58:44;20.13;;;18.13;;
7571;SDS011;3827;49.928;8.548;2023-02-12T14:04:20;17.58;;;15.88;;
7571;SDS011;3827;49.928;8.548;2023-02-12T14:06:57;19.60;;;17.63;;
7571;SDS011;3827;49.928;8.548;2023-02-12T14:09:31;19.75;;;17.77;;
7571;SDS011;3827;49.928;8.548;2023-02-12T14:12:01;19.50;;;17.50;;
7571;SDS011;3827;49.928;8.548;2023-02-12T14:14:31;20.13;;;18.13;;
7571;SDS011;3827;49.928;8.548;2023-02-12T14:20:07;20.27;;;18.27;;
7571;SDS011;3827;49.928;8.548;2023-02-12T14:22:56;24.00;;;21.45;;
7571;SDS011;3827;49.928;8.548;2023-02-12T14:25:44;21.05;;;18.85;;
7571;SDS011;3827;49.928;8.548;2023-02-12T14:28:21;21.30;;;19.15;;
7571;SDS011;3827;49.928;8.548;2023-02-12T14:37:16;19.08;;;17.17;;
7571;SDS011;3827;49.928;8.548;2023-02-12T14:43:25;19.75;;;17.75;;
7571;SDS011;3827;49.928;8.548;2023-02-12T14:45:57;19.67;;;17.67;;
7571;SDS011;3827;49.928;8.548;2023-02-12T14:48:47;17.80;;;16.10;;
7571;SDS011;3827;49.928;8.548;2023-02-12T14:51:19;19.90;;;17.90;;
7571;SDS011;3827;49.928;8.548;2023-02-12T14:53:53;19.35;;;17.35;;
7571;SDS011;3827;49.928;8.548;2023-02-12T14:56:21;20.02;;;18.02;;
7571;SDS011;3827;49.928;8.548;2023-02-12T14:58:49;19.40;;;17.50;;
7571;SDS011;3827;49.928;8.548;2023-02-12T15:01:23;18.75;;;16.85;;
7571;SDS011;3827;49.928;8.548;2023-02-12T15:03:55;18.38;;;16.67;;
7571;SDS011;3827;49.928;8.548;2023-02-12T15:06:26;19.55;;;17.55;;
7571;SDS011;3827;49.928;8.548;2023-02-12T15:09:05;18.70;;;16.90;;
7571;SDS011;3827;49.928;8.548;2023-02-12T15:11:38;18.73;;;16.88;;
7571;SDS011;3827;49.928;8.548;2023-02-12T15:14:11;18.38;;;16.67;;
7571;SDS011;3827;49.928;8.548;2023-02-12T15:16:44;18.60;;;16.90;;
7571;SDS011;3827;49.928;8.548;2023-02-12T15:19:29;18.88;;;17.05;;
7571;SDS011;3827;49.928;8.548;2023-02-12T15:22:10;18.60;;;16.90;;
7571;SDS011;3827;49.928;8.548;2023-02-12T15:24:46;19.02;;;17.02;;
7571;SDS011;3827;49.928;8.548;2023-02-12T15:27:13;19.55;;;17.67;;
7571;SDS011;3827;49.928;8.548;2023-02-12T15:29:41;19.23;;;17.25;;
7571;SDS011;3827;49.928;8.548;2023-02-12T15:32:14;20.17;;;18.17;;
7571;SDS011;3827;49.928;8.548;2023-02-12T15:34:44;19.67;;;17.77;;
7571;SDS011;3827;49.928;8.548;2023-02-12T15:37:15;19.45;;;17.55;;
7571;SDS011;3827;49.928;8.548;2023-02-12T15:39:48;19.33;;;17.40;;
7571;SDS011;3827;49.928;8.548;2023-02-12T15:42:25;20.13;;;18.23;;
7571;SDS011;3827;49.928;8.548;2023-02-12T15:45:00;19.55;;;17.75;;
7571;SDS011;3827;49.928;8.548;2023-02-12T15:47:42;20.67;;;18.67;;